createdAt,value
2023-01-11T00:06:18.018Z,4
2023-01-11T00:35:38.747Z,4
2023-01-11T01:04:56.036Z,3
2023-01-11T01:34:15.091Z,6
2023-01-11T02:03:40.405Z,1
2023-01-11T02:33:08.025Z,4
2023-01-11T03:02:29.995Z,4
2023-01-11T03:31:47.317Z,3
2023-01-11T04:01:11.037Z,3
2023-01-11T04:30:28.814Z,3
2023-01-11T04:59:49.239Z,3
2023-01-11T05:29:12.750Z,1
2023-01-11T05:58:27.855Z,1
2023-01-11T06:27:45.133Z,3
2023-01-11T06:57:04.493Z,3
2023-01-11T07:26:23.078Z,3
2023-01-11T07:55:32.534Z,2
2023-01-11T08:24:54.865Z,3
2023-01-11T08:54:13.083Z,3
2023-01-11T09:23:35.608Z,3
2023-01-11T09:52:46.963Z,3
2023-01-11T10:22:05.324Z,5
2023-01-11T10:51:19.207Z,4
2023-01-11T11:20:41.745Z,3
2023-01-11T11:50:04.574Z,4
2023-01-11T12:19:28.499Z,4
2023-01-11T12:48:54.855Z,6
2023-01-11T13:18:18.254Z,6
2023-01-11T13:47:39.363Z,6
2023-01-11T14:16:58.266Z,6
2023-01-11T14:46:20.207Z,7
2023-01-11T15:15:31.449Z,5
2023-01-11T15:44:38.363Z,10
2023-01-11T16:13:42.583Z,9
2023-01-11T16:42:58.486Z,11
2023-01-11T17:12:15.596Z,13
2023-01-11T17:41:30.339Z,6
2023-01-11T18:10:38.668Z,9
2023-01-11T18:39:59.543Z,4
2023-01-11T19:09:19.129Z,6
2023-01-11T19:38:39.993Z,6
2023-01-11T20:07:59.995Z,10
2023-01-11T20:37:22.290Z,6
2023-01-11T21:06:16.878Z,7
2023-01-11T21:35:21.019Z,7
2023-01-11T22:04:35.467Z,7
2023-01-11T22:33:39.298Z,9
2023-01-11T23:02:59.661Z,7
2023-01-11T23:32:01.307Z,7
